Time;durP1;ratioP1;P1;durP2;ratioP2;P2;SDS_P1;SDS_P2;PMS_P1;PMS_P2;Temp;Humidity;BMP_temperature;BMP_pressure;BME280_temperature;BME280_humidity;BME280_pressure;Samples;Min_cycle;Max_cycle;Signal;HPM_P1;HPM_P2
2022/09/16 00:01:20;;;;;;;1.70;0.80;;;;;;;16.04;100.00;95722.16;5093819;28;20204;-76
2022/09/16 00:03:48;;;;;;;0.70;0.70;;;;;;;16.02;100.00;95730.59;5077440;28;20232;-76
2022/09/16 00:06:20;;;;;;;4.70;1.00;;;;;;;16.07;100.00;95729.75;5069217;28;20204;-76
2022/09/16 00:08:48;;;;;;;0.80;0.80;;;;;;;16.02;100.00;95725.13;5086636;28;20219;-76
2022/09/16 00:11:15;;;;;;;1.27;0.83;;;;;;;15.99;100.00;95733.06;5073060;28;20216;-76
2022/09/16 00:13:44;;;;;;;1.90;0.80;;;;;;;15.98;100.00;95734.97;5079607;28;20204;-76
2022/09/16 00:16:18;;;;;;;1.53;0.70;;;;;;;15.98;100.00;95731.44;5081766;28;20277;-76
2022/09/16 00:18:45;;;;;;;1.00;0.80;;;;;;;15.95;100.00;95729.25;5097003;28;20196;-76
2022/09/16 00:21:13;;;;;;;1.70;0.80;;;;;;;15.92;100.00;95740.69;5093386;28;20224;-76
2022/09/16 00:23:40;;;;;;;1.70;0.80;;;;;;;15.92;100.00;95733.34;5084077;28;20211;-76
2022/09/16 00:26:07;;;;;;;1.20;0.90;;;;;;;15.94;100.00;95735.78;5104182;28;20373;-76
2022/09/16 00:28:34;;;;;;;1.80;1.00;;;;;;;15.96;100.00;95736.34;5085581;28;20201;-76
2022/09/16 00:31:03;;;;;;;1.13;0.80;;;;;;;15.94;100.00;95735.78;5100422;28;20226;-76
2022/09/16 00:33:30;;;;;;;2.00;1.00;;;;;;;15.92;100.00;95733.34;5089602;28;20207;-76
2022/09/16 00:36:05;;;;;;;2.20;0.90;;;;;;;15.95;100.00;95737.44;5079651;28;20244;-76
2022/09/16 00:38:32;;;;;;;1.83;1.00;;;;;;;15.95;100.00;95740.16;5073567;28;20238;-76
2022/09/16 00:40:59;;;;;;;1.27;0.90;;;;;;;15.98;100.00;95734.97;5086560;28;20203;-76
2022/09/16 00:43:26;;;;;;;1.70;0.93;;;;;;;15.98;100.00;95739.59;5086020;28;20291;-76
2022/09/16 00:45:58;;;;;;;1.83;0.83;;;;;;;15.98;100.00;95736.88;5100260;28;20215;-76
2022/09/16 00:48:30;;;;;;;1.77;0.90;;;;;;;15.96;100.00;95748.06;5081585;28;20210;-76
2022/09/16 00:51:02;;;;;;;1.80;0.70;;;;;;;15.92;100.00;95740.69;5099828;28;20227;-76
2022/09/16 00:53:33;;;;;;;0.90;0.90;;;;;;;15.91;100.00;95750.78;5078490;28;20212;-76
2022/09/16 00:56:06;;;;;;;1.63;1.03;;;;;;;15.91;100.00;95747.25;5074783;28;20268;-76
2022/09/16 00:58:40;;;;;;;1.33;0.97;;;;;;;15.88;100.00;95746.72;5084641;28;20267;-76
2022/09/16 01:01:07;;;;;;;1.00;0.90;;;;;;;15.86;100.00;95738.00;5079698;28;20212;-76
2022/09/16 01:03:44;;;;;;;1.10;1.00;;;;;;;15.82;100.00;95739.66;5075946;28;20197;-76
2022/09/16 01:06:12;;;;;;;1.20;1.10;;;;;;;15.79;100.00;95745.66;5092813;28;20214;-76
2022/09/16 01:08:42;;;;;;;2.60;0.97;;;;;;;15.80;100.00;95733.69;5078450;28;20196;-76
2022/09/16 01:11:09;;;;;;;1.40;1.13;;;;;;;15.84;100.00;95739.38;5069925;28;20228;-76
2022/09/16 01:13:36;;;;;;;1.90;1.20;;;;;;;15.80;100.00;95738.31;5086373;28;20197;-76
2022/09/16 01:16:08;;;;;;;1.23;1.00;;;;;;;15.82;100.00;95745.09;5072400;28;20252;-76
2022/09/16 01:18:43;;;;;;;1.60;0.90;;;;;;;15.85;100.00;95746.44;5072527;28;20205;-76
2022/09/16 01:21:25;;;;;;;2.07;1.00;;;;;;;15.87;100.00;95745.09;5078160;28;20240;-76
2022/09/16 01:24:28;;;;;;;1.10;1.00;;;;;;;15.86;100.00;95738.00;5079518;28;20208;-76
2022/09/16 01:27:21;;;;;;;1.03;1.03;;;;;;;15.79;100.00;95747.56;5083603;28;20204;-76
2022/09/16 01:30:13;;;;;;;1.30;1.20;;;;;;;15.77;100.00;95745.13;5076523;28;20219;-76
2022/09/16 01:32:55;;;;;;;1.10;1.00;;;;;;;15.76;100.00;95745.38;5080982;28;20216;-76
2022/09/16 01:35:30;;;;;;;1.70;1.30;;;;;;;15.68;100.00;95746.78;5086140;28;20303;-76
2022/09/16 01:38:06;;;;;;;1.40;1.30;;;;;;;15.66;100.00;95738.06;5075666;28;20193;-76
2022/09/16 01:40:39;;;;;;;12.43;1.63;;;;;;;15.62;100.00;95741.63;5087972;28;20227;-76
2022/09/16 01:43:18;;;;;;;1.60;1.50;;;;;;;15.57;100.00;95742.44;5084350;28;20218;-76
2022/09/16 01:45:54;;;;;;;1.77;1.20;;;;;;;15.56;100.00;95737.31;5081466;28;20212;-76
2022/09/16 01:48:29;;;;;;;1.80;1.60;;;;;;;15.58;100.00;95735.09;5083326;28;20196;-76
2022/09/16 01:51:03;;;;;;;1.77;1.43;;;;;;;15.55;100.00;95735.66;5088402;28;20289;-76
2022/09/16 01:53:34;;;;;;;1.80;1.53;;;;;;;15.54;100.00;95736.75;5091955;28;20236;-76
2022/09/16 01:56:09;;;;;;;1.50;1.40;;;;;;;15.52;100.00;95740.53;5076325;28;20213;-76
2022/09/16 01:58:41;;;;;;;5.47;1.70;;;;;;;15.61;100.00;95740.00;5082878;28;20235;-76
2022/09/16 02:01:14;;;;;;;3.90;2.27;;;;;;;15.56;100.00;95737.31;5076551;28;20212;-76
2022/09/16 02:03:49;;;;;;;2.57;1.90;;;;;;;15.49;100.00;95737.53;5078789;28;20201;-76
2022/09/16 02:06:20;;;;;;;1.70;1.60;;;;;;;15.42;100.00;95747.91;5087700;28;20207;-76
2022/09/16 02:08:52;;;;;;;3.00;1.70;;;;;;;15.39;100.00;95743.84;5077345;28;20211;-76
2022/09/16 02:11:21;;;;;;;2.50;1.40;;;;;;;15.42;100.00;95746.00;5076960;28;20225;-76
2022/09/16 02:13:53;;;;;;;2.87;1.70;;;;;;;15.44;100.00;95745.72;5081379;28;20199;-76
2022/09/16 02:16:25;;;;;;;2.73;1.60;;;;;;;15.42;100.00;95750.63;5073870;28;20300;-76
2022/09/16 02:18:58;;;;;;;2.97;1.50;;;;;;;15.43;100.00;95744.09;5075767;28;20285;-76
2022/09/16 02:21:29;;;;;;;1.50;1.40;;;;;;;15.38;100.00;95744.13;5085513;28;20228;-76
2022/09/16 02:24:01;;;;;;;1.57;1.47;;;;;;;15.30;100.00;95748.22;5081867;28;20193;-75
2022/09/16 02:26:34;;;;;;;3.40;1.70;;;;;;;15.28;100.00;95746.84;5080753;28;20274;-76
2022/09/16 02:29:03;;;;;;;1.60;1.40;;;;;;;15.31;100.00;95747.09;5089329;28;20206;-76
2022/09/16 02:31:35;;;;;;;1.60;1.50;;;;;;;15.32;100.00;95745.19;5076025;28;20235;-76
2022/09/16 02:34:09;;;;;;;5.83;1.90;;;;;;;15.33;100.00;95738.66;5075921;28;20212;-76
2022/09/16 02:36:40;;;;;;;3.20;1.57;;;;;;;15.34;100.00;95735.66;5096911;28;20203;-76
2022/09/16 02:39:11;;;;;;;3.33;2.50;;;;;;;15.28;100.00;95731.34;5088604;28;20250;-75
2022/09/16 02:41:40;;;;;;;2.00;1.67;;;;;;;15.30;100.00;95734.59;5105177;28;20200;-75
2022/09/16 02:44:09;;;;;;;1.70;1.60;;;;;;;15.31;100.00;95736.22;5090281;28;20203;-75
2022/09/16 02:46:42;;;;;;;2.53;1.93;;;;;;;15.31;100.00;95738.94;5075122;28;20205;-75
2022/09/16 02:49:17;;;;;;;4.77;2.10;;;;;;;15.30;100.00;95736.50;5097232;28;20310;-76
2022/09/16 02:51:52;;;;;;;2.80;1.93;;;;;;;15.30;100.00;95731.06;5083845;28;20247;-76
2022/09/16 02:54:24;;;;;;;3.30;2.53;;;;;;;15.34;100.00;95729.41;5093760;28;20248;-76
2022/09/16 02:56:51;;;;;;;2.73;1.80;;;;;;;15.35;100.00;95733.78;5077351;28;20193;-76
2022/09/16 02:59:19;;;;;;;2.13;1.77;;;;;;;15.36;100.00;95735.41;5087024;28;20196;-76
2022/09/16 03:01:47;;;;;;;1.90;1.60;;;;;;;15.39;100.00;95738.41;5100876;28;20223;-76
2022/09/16 03:04:18;;;;;;;1.87;1.63;;;;;;;15.42;100.00;95731.56;5077821;28;20204;-76
2022/09/16 03:06:46;;;;;;;1.77;1.67;;;;;;;15.38;100.00;95725.88;5081739;28;20250;-76
2022/09/16 03:09:15;;;;;;;3.83;1.83;;;;;;;15.37;100.00;95731.59;5074455;28;20204;-75
2022/09/16 03:12:19;;;;;;;2.93;2.10;;;;;;;15.37;100.00;95718.00;5073841;28;20233;-76
2022/09/16 03:15:21;;;;;;;3.43;1.83;;;;;;;15.41;100.00;95713.63;5085906;28;20231;-76
2022/09/16 03:18:04;;;;;;;2.37;1.90;;;;;;;15.38;100.00;95719.63;5085995;28;20262;-76
2022/09/16 03:20:42;;;;;;;2.23;1.70;;;;;;;15.37;100.00;95712.56;5074814;28;20255;-76
2022/09/16 03:23:18;;;;;;;4.33;1.70;;;;;;;15.37;100.00;95707.94;5101934;28;20204;-76
2022/09/16 03:25:55;;;;;;;2.20;2.00;;;;;;;15.38;100.00;95715.00;5099964;28;20245;-76
2022/09/16 03:28:27;;;;;;;3.57;2.17;;;;;;;15.38;100.00;95714.19;5077486;28;20243;-75
2022/09/16 03:31:01;;;;;;;3.13;2.07;;;;;;;15.41;100.00;95703.56;5074780;28;20324;-75
2022/09/16 03:33:34;;;;;;;3.10;1.90;;;;;;;15.41;100.00;95698.13;5087523;28;20272;-75
2022/09/16 03:36:07;;;;;;;4.47;2.40;;;;;;;15.38;100.00;95695.97;5099450;28;20212;-75
2022/09/16 03:38:37;;;;;;;2.57;2.10;;;;;;;15.37;100.00;95690.78;5083262;28;20322;-76
2022/09/16 03:41:07;;;;;;;3.50;2.47;;;;;;;15.35;100.00;95687.53;5105516;28;20195;-75
2022/09/16 03:43:35;;;;;;;2.60;2.40;;;;;;;15.37;100.00;95685.34;5092158;28;20205;-75
2022/09/16 03:46:02;;;;;;;5.97;2.50;;;;;;;15.40;100.00;95684.78;5094610;28;20197;-76
2022/09/16 03:48:29;;;;;;;3.47;1.90;;;;;;;15.34;100.00;95685.91;5101685;28;20291;-76
2022/09/16 03:50:56;;;;;;;2.30;2.10;;;;;;;15.30;100.00;95680.22;5084461;28;20220;-75
2022/09/16 03:53:24;;;;;;;3.23;2.20;;;;;;;15.31;100.00;95689.97;5085421;28;20201;-75
2022/09/16 03:55:51;;;;;;;3.00;2.23;;;;;;;15.26;100.00;95679.13;5078659;28;20205;-76
2022/09/16 03:58:18;;;;;;;3.83;1.90;;;;;;;15.28;100.00;95685.09;5076444;28;20297;-75
2022/09/16 04:00:50;;;;;;;2.33;1.93;;;;;;;15.31;100.00;95681.03;5094413;28;20307;-76
2022/09/16 04:03:18;;;;;;;2.20;2.00;;;;;;;15.32;100.00;95674.47;5076421;28;20531;-76
2022/09/16 04:05:45;;;;;;;3.47;2.70;;;;;;;15.32;100.00;95675.28;5085468;28;20196;-75
2022/09/16 04:08:12;;;;;;;2.30;2.10;;;;;;;15.30;100.00;95679.41;5103582;28;20208;-75
2022/09/16 04:10:40;;;;;;;4.63;2.20;;;;;;;15.28;100.00;95681.56;5089160;28;20189;-75
2022/09/16 04:13:08;;;;;;;2.30;2.10;;;;;;;15.33;100.00;95681.53;5097241;28;20237;-75
2022/09/16 04:15:37;;;;;;;3.33;2.17;;;;;;;15.38;100.00;95681.56;5078390;28;20233;-75
2022/09/16 04:18:04;;;;;;;2.97;2.40;;;;;;;15.39;100.00;95685.91;5088294;28;20222;-76
2022/09/16 04:20:33;;;;;;;2.87;1.90;;;;;;;15.38;100.00;95676.94;5079200;28;20236;-75
2022/09/16 04:23:00;;;;;;;4.50;1.87;;;;;;;15.38;100.00;95668.75;5086086;28;20318;-75
2022/09/16 04:25:27;;;;;;;4.47;2.00;;;;;;;15.31;100.00;95659.28;5080564;28;20204;-75
2022/09/16 04:27:56;;;;;;;2.20;1.87;;;;;;;15.34;100.00;95675.03;5095593;28;20196;-75
2022/09/16 04:30:23;;;;;;;2.27;2.07;;;;;;;15.32;100.00;95666.31;5076698;28;20295;-75
2022/09/16 04:32:53;;;;;;;2.40;1.90;;;;;;;15.35;100.00;95654.88;5074503;28;20224;-75
2022/09/16 04:35:20;;;;;;;2.90;2.20;;;;;;;15.34;100.00;95659.50;5085948;28;20208;-75
2022/09/16 04:37:47;;;;;;;3.40;2.40;;;;;;;15.31;100.00;95651.09;5087892;28;20274;-75
2022/09/16 04:40:15;;;;;;;2.50;2.30;;;;;;;15.26;100.00;95651.09;5075906;28;20200;-75
2022/09/16 04:42:42;;;;;;;3.27;2.20;;;;;;;15.27;100.00;95648.13;5081440;28;20196;-75
2022/09/16 04:45:10;;;;;;;4.13;2.43;;;;;;;15.30;100.00;95655.72;5101894;28;20242;-75
2022/09/16 04:47:37;;;;;;;2.87;2.20;;;;;;;15.32;100.00;95660.88;5084591;28;20204;-75
2022/09/16 04:50:06;;;;;;;2.70;2.30;;;;;;;15.32;100.00;95661.69;5083855;28;20205;-75
2022/09/16 04:52:33;;;;;;;3.80;2.23;;;;;;;15.31;100.00;95662.00;5071308;28;20347;-75
2022/09/16 04:55:00;;;;;;;3.60;2.60;;;;;;;15.27;100.00;95658.19;5079743;28;20266;-75
2022/09/16 04:57:31;;;;;;;2.63;2.40;;;;;;;15.25;100.00;95660.34;5105444;28;20199;-75
2022/09/16 04:59:58;;;;;;;3.37;2.37;;;;;;;15.27;100.00;95660.91;5092906;28;20319;-75
2022/09/16 05:02:28;;;;;;;6.60;2.80;;;;;;;15.23;100.00;95654.38;5095629;28;20207;-75
2022/09/16 05:04:55;;;;;;;3.17;2.77;;;;;;;15.22;100.00;95656.31;5079666;28;20254;-75
2022/09/16 05:07:22;;;;;;;6.17;2.33;;;;;;;15.33;100.00;95662.50;5080203;28;20269;-75
2022/09/16 05:09:49;;;;;;;5.33;2.50;;;;;;;15.32;100.00;95660.88;5101131;28;20910;-75
2022/09/16 05:12:16;;;;;;;4.30;2.37;;;;;;;15.28;100.00;95665.25;5090688;28;20228;-75
2022/09/16 05:14:43;;;;;;;4.43;2.30;;;;;;;15.29;100.00;95664.97;5094467;28;20220;-75
2022/09/16 05:17:10;;;;;;;4.57;2.87;;;;;;;15.32;100.00;95644.56;5085398;28;20857;-75
2022/09/16 05:19:38;;;;;;;3.43;2.50;;;;;;;15.35;100.00;95654.88;5082006;28;20300;-75
2022/09/16 05:22:06;;;;;;;3.00;2.70;;;;;;;15.34;100.00;95655.97;5095709;28;20243;-75
2022/09/16 05:24:35;;;;;;;3.27;2.17;;;;;;;15.32;100.00;95639.94;5100712;28;20201;-75
2022/09/16 05:27:03;;;;;;;4.97;2.13;;;;;;;15.35;100.00;95633.94;5077800;28;20219;-75
2022/09/16 05:29:30;;;;;;;2.43;1.90;;;;;;;15.38;100.00;95629.88;5098098;28;20219;-75
2022/09/16 05:31:57;;;;;;;2.77;2.07;;;;;;;15.33;100.00;95621.69;5086275;28;20217;-75
2022/09/16 05:34:27;;;;;;;5.70;3.30;;;;;;;15.34;100.00;95626.06;5086456;28;20215;-75
2022/09/16 05:36:56;;;;;;;2.90;2.60;;;;;;;15.34;100.00;95626.88;5096099;28;20197;-75
2022/09/16 05:39:24;;;;;;;2.60;1.90;;;;;;;15.35;100.00;95638.56;5091810;28;20232;-76
2022/09/16 05:41:55;;;;;;;5.43;2.70;;;;;;;15.33;100.00;95647.00;5089789;28;20205;-75
2022/09/16 05:44:22;;;;;;;3.87;3.10;;;;;;;15.33;100.00;95646.19;5078265;28;20242;-76
2022/09/16 05:46:49;;;;;;;3.67;2.70;;;;;;;15.34;100.00;95653.25;5081713;28;20208;-76
2022/09/16 05:49:19;;;;;;;5.00;3.00;;;;;;;15.34;100.00;95664.94;5095924;28;20197;-76
2022/09/16 05:51:47;;;;;;;6.30;2.50;;;;;;;15.38;100.00;95667.94;5095574;28;20281;-76
2022/09/16 05:54:17;;;;;;;3.77;3.03;;;;;;;15.33;100.00;95679.63;5085578;28;20209;-76
2022/09/16 05:56:44;;;;;;;5.23;2.60;;;;;;;15.30;100.00;95660.34;5106774;28;20212;-76
2022/09/16 05:59:13;;;;;;;3.97;2.80;;;;;;;15.29;100.00;95654.09;5079239;28;20188;-76
2022/09/16 06:01:40;;;;;;;4.83;2.43;;;;;;;15.29;100.00;95658.72;5088676;28;20200;-76
2022/09/16 06:04:11;;;;;;;2.73;2.43;;;;;;;15.26;100.00;95667.44;5097883;28;20200;-76
2022/09/16 06:06:40;;;;;;;3.13;2.53;;;;;;;15.27;100.00;95669.88;5083789;28;20208;-76
2022/09/16 06:09:10;;;;;;;3.23;2.40;;;;;;;15.28;100.00;95667.97;5081721;28;20278;-76
2022/09/16 06:11:40;;;;;;;3.67;2.40;;;;;;;15.30;100.00;95658.44;5075093;28;20224;-76
2022/09/16 06:14:07;;;;;;;4.50;2.80;;;;;;;15.33;100.00;95657.06;5089943;28;20226;-76
2022/09/16 06:16:35;;;;;;;3.07;2.70;;;;;;;15.33;100.00;95662.50;5074114;28;20232;-76
2022/09/16 06:19:05;;;;;;;5.20;2.40;;;;;;;15.34;100.00;95653.25;5076250;28;20197;-76
2022/09/16 06:21:33;;;;;;;2.57;2.37;;;;;;;15.34;100.00;95650.53;5099323;28;20316;-76
2022/09/16 06:24:00;;;;;;;4.03;2.33;;;;;;;15.39;100.00;95669.56;5087032;28;20209;-76
2022/09/16 06:26:27;;;;;;;3.00;2.70;;;;;;;15.39;100.00;95669.56;5077751;28;20273;-76
2022/09/16 06:28:56;;;;;;;5.37;2.50;;;;;;;15.36;100.00;95678.28;5095618;28;20204;-76
2022/09/16 06:31:25;;;;;;;4.03;2.30;;;;;;;15.35;100.00;95679.38;5090507;28;20256;-75
2022/09/16 06:33:53;;;;;;;3.67;3.03;;;;;;;15.38;100.00;95676.09;5084996;28;20220;-76
2022/09/16 06:36:22;;;;;;;3.23;2.80;;;;;;;15.39;100.00;95667.69;5093899;28;20200;-76
2022/09/16 06:38:50;;;;;;;6.13;3.30;;;;;;;15.42;100.00;95671.72;5073304;28;20236;-76
2022/09/16 06:41:19;;;;;;;5.43;3.00;;;;;;;15.39;100.00;95669.56;5090416;28;20208;-76
2022/09/16 06:43:47;;;;;;;3.93;2.97;;;;;;;15.40;100.00;95673.91;5101059;28;20205;-76
2022/09/16 06:46:18;;;;;;;3.77;2.80;;;;;;;15.39;100.00;95692.16;5074301;28;20234;-76
2022/09/16 06:48:46;;;;;;;5.20;3.10;;;;;;;15.38;100.00;95697.88;5096389;28;20197;-76
2022/09/16 06:51:15;;;;;;;4.10;2.90;;;;;;;15.38;100.00;95703.31;5096180;28;20201;-76
2022/09/16 06:53:43;;;;;;;4.13;2.93;;;;;;;15.35;100.00;95695.69;5077394;28;20205;-76
2022/09/16 06:56:12;;;;;;;5.33;4.30;;;;;;;15.26;100.00;95694.63;5102289;28;20200;-76
2022/09/16 06:58:41;;;;;;;4.93;3.70;;;;;;;15.24;100.00;95688.63;5093902;28;20256;-76
2022/09/16 07:01:08;;;;;;;3.73;2.77;;;;;;;15.23;100.00;95681.56;5081630;28;20272;-76
2022/09/16 07:03:40;;;;;;;6.23;3.90;;;;;;;15.29;100.00;95688.63;5079437;28;20204;-76
2022/09/16 07:06:09;;;;;;;5.23;3.00;;;;;;;15.31;100.00;95689.19;5101486;28;20204;-76
2022/09/16 07:08:37;;;;;;;2.90;2.60;;;;;;;15.28;100.00;95687.81;5080111;28;20315;-76
2022/09/16 07:11:06;;;;;;;5.60;3.90;;;;;;;15.33;100.00;95684.25;5073102;28;20205;-76
2022/09/16 07:13:34;;;;;;;3.13;2.53;;;;;;;15.33;100.00;95673.38;5084429;28;20224;-76
2022/09/16 07:16:01;;;;;;;2.90;2.60;;;;;;;15.32;100.00;95663.59;5081089;28;20216;-76
2022/09/16 07:18:29;;;;;;;4.87;2.90;;;;;;;15.38;100.00;95665.22;5076802;28;20216;-76
2022/09/16 07:21:06;;;;;;;3.30;2.70;;;;;;;15.45;100.00;95672.00;5091600;28;20262;-76
2022/09/16 07:23:35;;;;;;;5.23;3.70;;;;;;;15.44;100.00;95664.09;5082619;28;20215;-76
2022/09/16 07:26:05;;;;;;;3.90;2.40;;;;;;;15.42;100.00;95683.41;5084467;28;20200;-76
2022/09/16 07:28:32;;;;;;;5.90;2.50;;;;;;;15.41;100.00;95670.09;5077146;28;20291;-76
2022/09/16 07:31:02;;;;;;;2.80;2.60;;;;;;;15.35;100.00;95682.09;5074828;28;20204;-76
2022/09/16 07:33:30;;;;;;;3.83;2.83;;;;;;;15.39;100.00;95684.00;5102006;28;20213;-76
2022/09/16 07:36:01;;;;;;;6.47;3.30;;;;;;;15.40;100.00;95685.59;5084770;28;20227;-76
2022/09/16 07:38:30;;;;;;;4.60;2.93;;;;;;;15.46;100.00;95689.94;5105269;28;20196;-76
2022/09/16 07:41:03;;;;;;;3.97;2.93;;;;;;;15.52;100.00;95690.75;5083331;28;20200;-76
2022/09/16 07:43:30;;;;;;;3.57;3.00;;;;;;;15.58;100.00;95697.81;5081893;28;20224;-76
2022/09/16 07:45:58;;;;;;;3.73;3.00;;;;;;;15.65;100.00;95703.78;5076504;28;20229;-76
2022/09/16 07:48:25;;;;;;;2.83;2.60;;;;;;;15.63;100.00;95697.81;5100613;28;20209;-76
2022/09/16 07:50:56;;;;;;;2.90;2.60;;;;;;;15.55;100.00;95697.56;5085012;28;20211;-76
2022/09/16 07:53:24;;;;;;;4.03;2.80;;;;;;;15.52;100.00;95705.16;5081844;28;20225;-76
2022/09/16 07:55:52;;;;;;;3.80;3.10;;;;;;;15.50;100.00;95703.81;5078341;28;20264;-76
2022/09/16 07:58:19;;;;;;;4.23;3.23;;;;;;;15.52;100.00;95707.06;5073205;28;20208;-76
2022/09/16 08:00:48;;;;;;;6.13;3.20;;;;;;;15.56;100.00;95712.81;5088653;28;20201;-76
2022/09/16 08:03:16;;;;;;;3.43;3.10;;;;;;;15.58;100.00;95714.16;5100078;28;20216;-76
2022/09/16 08:05:43;;;;;;;3.90;2.80;;;;;;;15.62;100.00;95712.50;5078873;28;20283;-76
2022/09/16 08:08:10;;;;;;;3.60;3.20;;;;;;;15.61;100.00;95713.59;5085384;28;20209;-76
2022/09/16 08:10:38;;;;;;;5.00;3.77;;;;;;;15.55;100.00;95719.34;5082902;28;20230;-76
2022/09/16 08:13:07;;;;;;;3.10;2.80;;;;;;;15.63;100.00;95724.22;5080532;28;20312;-76
2022/09/16 08:15:35;;;;;;;4.60;4.10;;;;;;;15.64;100.00;95723.13;5074374;28;20319;-76
2022/09/16 08:18:02;;;;;;;5.27;3.77;;;;;;;15.71;100.00;95723.66;5071251;28;20196;-76
2022/09/16 08:20:29;;;;;;;3.33;3.03;;;;;;;15.71;100.00;95710.84;5093066;28;20294;-76
2022/09/16 08:22:56;;;;;;;4.03;3.23;;;;;;;15.86;100.00;95720.84;5086427;28;20225;-76
2022/09/16 08:25:23;;;;;;;3.57;2.90;;;;;;;15.98;100.00;95717.81;5081510;28;20204;-76
2022/09/16 08:27:50;;;;;;;3.30;3.00;;;;;;;16.11;100.00;95723.47;5085628;28;20207;-76
2022/09/16 08:30:19;;;;;;;7.27;3.50;;;;;;;16.14;100.00;95725.63;5076139;28;20986;-76
2022/09/16 08:32:46;;;;;;;6.80;3.83;;;;;;;16.20;100.00;95738.13;5070975;28;20213;-76
2022/09/16 08:35:13;;;;;;;3.50;3.00;;;;;;;16.05;100.00;95723.78;5084582;28;20211;-76
2022/09/16 08:37:40;;;;;;;4.20;2.90;;;;;;;16.06;100.00;95725.41;5084909;28;20307;-76
2022/09/16 08:40:08;;;;;;;3.17;2.87;;;;;;;16.00;100.00;95726.50;5076807;28;20197;-76
2022/09/16 08:42:57;;;;;;;3.20;2.90;;;;;;;15.93;100.00;95736.88;5073587;28;20200;-76
2022/09/16 08:45:34;;;;;;;2.93;2.63;;;;;;;15.88;100.00;95745.91;5086896;28;20273;-76
2022/09/16 08:48:21;;;;;;;3.33;2.60;;;;;;;15.89;100.00;95750.25;5083630;28;20215;-76
2022/09/16 08:50:50;;;;;;;4.97;2.90;;;;;;;15.81;100.00;95751.66;5096785;28;20231;-76
2022/09/16 08:53:22;;;;;;;3.27;2.97;;;;;;;15.79;100.00;95742.94;5071681;28;20213;-76
2022/09/16 08:55:50;;;;;;;3.63;2.97;;;;;;;15.68;100.00;95751.41;5086810;28;20196;-76
2022/09/16 08:58:20;;;;;;;4.93;3.87;;;;;;;15.62;100.00;95747.06;5094873;28;21126;-76
2022/09/16 09:00:53;;;;;;;4.20;3.43;;;;;;;15.64;100.00;95744.91;5078293;28;20205;-76
2022/09/16 09:03:33;;;;;;;3.40;3.10;;;;;;;15.69;100.00;95742.97;5072062;28;20196;-76
2022/09/16 09:06:02;;;;;;;4.43;2.93;;;;;;;15.76;100.00;95746.22;5100789;28;20205;-76
2022/09/16 09:08:39;;;;;;;3.67;3.30;;;;;;;15.79;100.00;95747.56;5086672;28;20204;-76
2022/09/16 09:11:16;;;;;;;5.03;3.60;;;;;;;15.87;100.00;95745.09;5086610;28;20303;-76
2022/09/16 09:14:11;;;;;;;5.40;3.67;;;;;;;15.93;100.00;95753.22;5092587;28;20310;-76
2022/09/16 09:16:53;;;;;;;3.40;3.10;;;;;;;15.83;100.00;95744.00;5068962;28;20256;-76
2022/09/16 09:19:33;;;;;;;4.03;3.23;;;;;;;15.88;100.00;95744.00;5078928;28;20228;-76
2022/09/16 09:22:13;;;;;;;3.40;3.00;;;;;;;15.84;100.00;95739.38;5084648;28;20293;-76
2022/09/16 09:24:58;;;;;;;3.90;3.00;;;;;;;15.68;100.00;95746.78;5075106;28;20204;-76
2022/09/16 09:27:31;;;;;;;5.77;3.40;;;;;;;15.60;100.00;95746.53;5073528;28;20208;-76
2022/09/16 09:30:05;;;;;;;3.77;3.27;;;;;;;15.54;100.00;95751.19;5101679;28;20201;-76
2022/09/16 09:32:51;;;;;;;6.73;3.30;;;;;;;15.55;100.00;95749.28;5079352;28;20226;-76
2022/09/16 09:35:36;;;;;;;3.77;3.47;;;;;;;15.51;100.00;95749.78;5077192;28;20208;-76
2022/09/16 09:38:41;;;;;;;3.97;3.53;;;;;;;15.56;100.00;95751.72;5092655;28;20210;-76
2022/09/16 09:41:12;;;;;;;6.37;3.17;;;;;;;15.59;100.00;95753.88;5078852;28;20209;-76
2022/09/16 09:43:43;;;;;;;6.20;3.87;;;;;;;15.68;100.00;95757.66;5076064;28;20201;-76
2022/09/16 09:46:18;;;;;;;4.20;3.60;;;;;;;15.75;100.00;95760.09;5080657;28;20236;-76
2022/09/16 09:48:51;;;;;;;5.13;3.60;;;;;;;15.78;100.00;95770.44;5091693;28;20216;-76
2022/09/16 09:51:27;;;;;;;6.07;3.67;;;;;;;15.79;100.00;95767.44;5090708;28;20249;-76
2022/09/16 09:54:00;;;;;;;5.10;3.90;;;;;;;15.79;100.00;95764.72;5087824;28;20312;-76
2022/09/16 09:56:33;;;;;;;6.93;3.60;;;;;;;15.76;100.00;95762.53;5090385;28;20201;-76
2022/09/16 09:59:11;;;;;;;7.70;4.00;;;;;;;15.89;100.00;95770.13;5080496;28;20220;-76
2022/09/16 10:01:38;;;;;;;5.07;3.63;;;;;;;15.97;100.00;95767.94;5083440;28;20280;-76
2022/09/16 10:04:14;;;;;;;5.07;4.17;;;;;;;16.08;100.00;95772.22;5099366;28;20287;-76
2022/09/16 10:06:42;;;;;;;5.60;3.83;;;;;;;16.13;100.00;95759.41;5079171;28;20258;-76
2022/09/16 10:09:14;;;;;;;6.83;4.40;;;;;;;16.19;100.00;95762.91;5087417;28;20213;-76
2022/09/16 10:11:48;;;;;;;5.47;4.20;;;;;;;16.24;100.00;95744.66;5087056;28;20207;-76
2022/09/16 10:14:30;;;;;;;6.40;4.20;;;;;;;16.32;100.00;95745.16;5089057;28;20264;-76
2022/09/16 10:17:01;;;;;;;5.70;3.63;;;;;;;16.40;100.00;95750.03;5078796;28;20323;-76
2022/09/16 10:19:49;;;;;;;6.63;4.73;;;;;;;16.44;100.00;95737.44;5083980;28;20203;-76
2022/09/16 10:22:23;;;;;;;6.03;4.23;;;;;;;16.47;100.00;95737.72;5093789;28;20236;-76
2022/09/16 10:24:54;;;;;;;5.33;4.10;;;;;;;16.47;100.00;95731.44;5080204;28;20208;-76
2022/09/16 10:27:26;;;;;;;5.53;3.87;;;;;;;16.40;100.00;95731.75;5076729;28;20220;-76
2022/09/16 10:30:14;;;;;;;4.27;3.60;;;;;;;16.38;100.00;95728.50;5099504;28;20309;-76
2022/09/16 10:32:50;;;;;;;4.93;3.47;;;;;;;16.39;100.00;95732.03;5084956;28;20212;-76
2022/09/16 10:35:21;;;;;;;5.33;3.83;;;;;;;16.36;100.00;95729.88;5103463;28;20196;-76
2022/09/16 10:37:53;;;;;;;4.63;3.63;;;;;;;16.34;100.00;95734.78;5098643;28;20204;-76
2022/09/16 10:40:22;;;;;;;3.80;3.40;;;;;;;16.31;100.00;95738.91;5083364;28;20295;-76
2022/09/16 10:42:51;;;;;;;5.33;3.50;;;;;;;16.13;100.00;95734.91;5086491;28;20200;-76
2022/09/16 10:45:25;;;;;;;3.60;3.30;;;;;;;16.09;100.00;95736.53;5074249;28;20261;-76
2022/09/16 10:47:55;;;;;;;4.10;3.70;;;;;;;16.02;100.00;95743.38;5088331;28;20209;-76
2022/09/16 10:50:25;;;;;;;4.80;3.73;;;;;;;15.98;100.00;95740.41;5077987;28;20239;-76
2022/09/16 10:52:53;;;;;;;7.23;4.20;;;;;;;15.98;100.00;95739.59;5075436;28;20229;-76
2022/09/16 10:55:24;;;;;;;4.80;3.93;;;;;;;15.91;100.00;95744.53;5091657;28;20204;-76
2022/09/16 10:57:52;;;;;;;6.33;4.23;;;;;;;16.05;100.00;95740.13;5086243;28;20205;-76
2022/09/16 11:00:21;;;;;;;4.07;3.67;;;;;;;16.11;100.00;95734.34;5075919;28;20207;-76
2022/09/16 11:03:16;;;;;;;5.97;4.23;;;;;;;16.06;100.00;95736.31;5078440;28;20240;-76
2022/09/16 11:05:57;;;;;;;5.60;4.33;;;;;;;16.05;100.00;95734.66;5082138;28;20258;-76
2022/09/16 11:08:38;;;;;;;5.20;4.60;;;;;;;16.12;100.00;95736.00;5084577;28;20196;-76
2022/09/16 11:11:13;;;;;;;4.77;4.27;;;;;;;16.22;100.00;95729.69;5094682;28;20308;-76
2022/09/16 11:13:49;;;;;;;5.50;4.13;;;;;;;16.25;100.00;95729.91;5095509;28;20306;-76
2022/09/16 11:16:44;;;;;;;5.67;4.50;;;;;;;16.15;100.00;95730.00;5077433;28;20243;-76
2022/09/16 11:19:19;;;;;;;6.53;4.80;;;;;;;16.12;100.00;95732.44;5080959;28;20303;-76
2022/09/16 11:22:03;;;;;;;7.20;4.63;;;;;;;16.11;100.00;95722.66;5081310;28;20239;-76
2022/09/16 11:24:51;;;;;;;6.10;4.37;;;;;;;16.21;100.00;95733.50;5073960;28;20205;-76
2022/09/16 11:27:29;;;;;;;4.60;4.20;;;;;;;16.34;100.00;95721.97;5065666;28;20300;-76
2022/09/16 11:30:08;;;;;;;5.77;3.80;;;;;;;16.32;100.00;95723.38;5070820;28;20209;-76
2022/09/16 11:32:59;;;;;;;4.43;4.00;;;;;;;16.43;100.00;95741.25;5072802;28;20266;-75
2022/09/16 11:36:15;;;;;;;4.87;4.00;;;;;;;16.53;100.00;95739.28;5086865;28;20229;-75
2022/09/16 11:38:57;;;;;;;4.97;3.63;;;;;;;16.44;100.00;95727.34;5077299;28;20205;-75
2022/09/16 11:41:30;;;;;;;4.70;4.10;;;;;;;16.57;100.00;95734.91;5070559;28;20216;-75
2022/09/16 11:44:30;;;;;;;5.33;4.80;;;;;;;16.67;100.00;95725.91;5075340;28;20244;-76
2022/09/16 11:47:12;;;;;;;4.87;4.43;;;;;;;16.76;100.00;95731.56;5076035;28;20300;-76